Time;durP1;ratioP1;P1;durP2;ratioP2;P2;SDS_P1;SDS_P2;PMS_P1;PMS_P2;Temp;Humidity;BMP_temperature;BMP_pressure;BME280_temperature;BME280_humidity;BME280_pressure;Samples;Min_cycle;Max_cycle;Signal;HPM_P1;HPM_P2
2024/01/01 00:00:27;;;;;;;88.83;33.43;;;;;;;;;;5039835;28;20204;-84
2024/01/01 00:02:56;;;;;;;75.13;33.60;;;;;;;;;;5040229;28;20223;-84
2024/01/01 00:05:27;;;;;;;83.93;35.47;;;;;;;;;;5041396;28;20627;-83
2024/01/01 00:07:56;;;;;;;78.00;32.27;;;;;;;;;;5043932;28;20223;-85
2024/01/01 00:10:26;;;;;;;80.67;32.23;;;;;;;;;;5033818;28;20310;-85
2024/01/01 00:12:56;;;;;;;66.83;26.87;;;;;;;;;;5042297;28;20196;-85
2024/01/01 00:15:24;;;;;;;73.87;27.07;;;;;;;;;;5040652;28;20295;-87
2024/01/01 00:17:54;;;;;;;76.60;29.37;;;;;;;;;;5035052;28;20204;-84
2024/01/01 00:20:22;;;;;;;80.63;31.60;;;;;;;;;;5034346;28;20228;-84
2024/01/01 00:22:52;;;;;;;74.90;31.17;;;;;;;;;;5032763;28;20211;-87
2024/01/01 00:25:21;;;;;;;83.37;32.23;;;;;;;;;;5033398;28;20196;-86
2024/01/01 00:27:49;;;;;;;92.00;27.97;;;;;;;;;;5033422;28;20278;-85
2024/01/01 00:30:17;;;;;;;85.70;31.23;;;;;;;;;;5032521;28;20254;-86
2024/01/01 00:32:45;;;;;;;76.40;29.60;;;;;;;;;;5032124;28;20222;-85
2024/01/01 00:35:16;;;;;;;81.20;30.93;;;;;;;;;;5032554;28;20236;-85
2024/01/01 00:37:46;;;;;;;73.27;28.27;;;;;;;;;;5029219;28;20223;-85
2024/01/01 00:40:15;;;;;;;77.90;28.73;;;;;;;;;;5043855;28;20344;-86
2024/01/01 00:42:44;;;;;;;78.30;28.53;;;;;;;;;;5034406;28;20222;-84
2024/01/01 00:45:12;;;;;;;69.30;29.23;;;;;;;;;;5030650;28;20211;-87
2024/01/01 00:47:41;;;;;;;79.00;30.37;;;;;;;;;;5028555;28;20259;-86
2024/01/01 00:50:10;;;;;;;79.97;29.63;;;;;;;;;;5032669;28;20210;-85
2024/01/01 00:52:41;;;;;;;68.83;29.20;;;;;;;;;;5032371;28;20347;-84
2024/01/01 00:55:11;;;;;;;76.03;31.63;;;;;;;;;;5034139;28;20749;-83
2024/01/01 00:57:41;;;;;;;68.60;29.03;;;;;;;;;;5031663;28;20669;-84
2024/01/01 01:00:11;;;;;;;76.07;29.97;;;;;;;;;;5031073;28;20632;-85
2024/01/01 01:02:40;;;;;;;75.30;29.87;;;;;;;;;;5031624;28;20236;-84
2024/01/01 01:05:13;;;;;;;63.00;27.17;;;;;;;;;;5025680;28;20247;-85
2024/01/01 01:07:58;;;;;;;63.70;25.47;;;;;;;;;;5033193;28;20231;-85
2024/01/01 01:10:33;;;;;;;55.70;22.63;;;;;;;;;;5017788;28;20676;-85
2024/01/01 01:13:02;;;;;;;57.63;25.70;;;;;;;;;;5012620;28;20783;-85
2024/01/01 01:15:39;;;;;;;;;;;;;;;;;;;;;
2024/01/01 01:18:22;;;;;;;51.53;19.80;;;;;;;;;;5030210;28;20231;-86
2024/01/01 01:21:04;;;;;;;48.53;20.27;;;;;;;;;;5027600;28;20239;-86
2024/01/01 01:23:58;;;;;;;;;;;;;;;;;;;;;
2024/01/01 01:26:56;;;;;;;53.00;24.00;;;;;;;;;;5025527;28;20243;-85
2024/01/01 01:29:27;;;;;;;44.63;16.13;;;;;;;;;;5030614;28;20220;-85
2024/01/01 01:32:18;;;;;;;27.07;14.13;;;;;;;;;;5022513;28;20228;-84
2024/01/01 01:34:52;;;;;;;25.50;12.50;;;;;;;;;;4992173;28;20250;-85
2024/01/01 01:37:21;;;;;;;24.47;11.17;;;;;;;;;;5025426;28;20223;-85
2024/01/01 01:40:07;;;;;;;44.77;13.23;;;;;;;;;;5031394;28;20268;-85
2024/01/01 01:42:34;;;;;;;20.40;10.17;;;;;;;;;;5031968;28;20196;-85
2024/01/01 01:45:04;;;;;;;24.50;11.53;;;;;;;;;;5030819;28;20294;-86
2024/01/01 01:47:36;;;;;;;30.50;10.63;;;;;;;;;;5032085;28;20242;-85
2024/01/01 01:50:06;;;;;;;33.50;13.67;;;;;;;;;;5032041;28;20188;-87
2024/01/01 01:52:36;;;;;;;25.43;14.63;;;;;;;;;;5030679;28;20245;-86
2024/01/01 01:55:09;;;;;;;27.77;13.23;;;;;;;;;;5030900;28;20196;-86
2024/01/01 01:57:40;;;;;;;24.07;11.00;;;;;;;;;;5032483;28;20214;-85
2024/01/01 02:00:10;;;;;;;20.13;12.37;;;;;;;;;;5030937;28;20249;-86
2024/01/01 02:02:39;;;;;;;20.67;10.23;;;;;;;;;;5032325;28;20204;-86
2024/01/01 02:05:09;;;;;;;26.03;12.13;;;;;;;;;;5031723;28;20208;-85
2024/01/01 02:07:39;;;;;;;26.90;12.80;;;;;;;;;;5030294;28;20235;-87
2024/01/01 02:10:13;;;;;;;21.30;10.83;;;;;;;;;;5033330;28;20243;-85
2024/01/01 02:12:44;;;;;;;26.13;11.33;;;;;;;;;;5032911;28;20205;-85
2024/01/01 02:15:13;;;;;;;24.90;9.90;;;;;;;;;;5048594;28;20219;-86
2024/01/01 02:17:43;;;;;;;25.40;13.20;;;;;;;;;;5053452;28;20259;-84
2024/01/01 02:20:15;;;;;;;33.13;11.27;;;;;;;;;;5044614;28;20391;-86
2024/01/01 02:22:56;;;;;;;20.43;9.57;;;;;;;;;;5029688;28;20279;-85
2024/01/01 02:25:30;;;;;;;20.13;9.23;;;;;;;;;;5030580;28;20220;-85
2024/01/01 02:28:05;;;;;;;26.97;12.93;;;;;;;;;;5030660;28;20215;-85
2024/01/01 02:30:46;;;;;;;26.83;12.80;;;;;;;;;;5029846;28;20677;-85
2024/01/01 02:33:22;;;;;;;35.93;13.37;;;;;;;;;;5030956;28;20774;-85
2024/01/01 02:35:51;;;;;;;32.70;12.70;;;;;;;;;;5030413;28;20384;-86
2024/01/01 02:38:23;;;;;;;27.23;13.80;;;;;;;;;;5030495;28;20249;-85
2024/01/01 02:41:00;;;;;;;28.80;13.97;;;;;;;;;;5031798;28;20246;-86
2024/01/01 02:43:32;;;;;;;35.10;13.87;;;;;;;;;;5031054;28;20188;-86
2024/01/01 02:46:01;;;;;;;39.40;14.13;;;;;;;;;;5030096;28;20204;-86
2024/01/01 02:48:37;;;;;;;31.50;14.47;;;;;;;;;;5030510;28;20227;-85
2024/01/01 02:51:09;;;;;;;30.87;14.10;;;;;;;;;;5029955;28;20695;-86
2024/01/01 02:53:40;;;;;;;28.30;14.90;;;;;;;;;;5030066;28;20667;-86
2024/01/01 02:56:15;;;;;;;32.83;14.60;;;;;;;;;;5031311;28;20214;-85
2024/01/01 02:58:46;;;;;;;28.50;14.10;;;;;;;;;;5029135;28;20219;-85
2024/01/01 03:01:15;;;;;;;35.63;16.70;;;;;;;;;;5030600;28;20218;-85
2024/01/01 03:03:49;;;;;;;44.80;16.63;;;;;;;;;;5029565;28;20200;-86
2024/01/01 03:06:19;;;;;;;32.57;16.17;;;;;;;;;;5029960;28;20208;-85
2024/01/01 03:08:48;;;;;;;34.50;14.27;;;;;;;;;;5030366;28;20700;-85
2024/01/01 03:11:21;;;;;;;29.33;15.43;;;;;;;;;;5030388;28;20196;-87
2024/01/01 03:13:50;;;;;;;33.03;16.23;;;;;;;;;;5029695;28;20294;-86
2024/01/01 03:16:23;;;;;;;38.67;14.83;;;;;;;;;;5030084;28;20286;-85
2024/01/01 03:18:51;;;;;;;27.87;16.23;;;;;;;;;;5022515;28;20485;-87
2024/01/01 03:21:21;;;;;;;29.83;13.77;;;;;;;;;;5029166;28;20736;-85
2024/01/01 03:23:52;;;;;;;37.33;14.00;;;;;;;;;;5030430;28;20199;-86
2024/01/01 03:26:24;;;;;;;40.37;15.53;;;;;;;;;;5029679;28;20211;-86
2024/01/01 03:28:55;;;;;;;38.90;15.40;;;;;;;;;;5029185;28;20279;-85
2024/01/01 03:31:26;;;;;;;45.63;15.53;;;;;;;;;;5030567;28;20216;-86
2024/01/01 03:33:56;;;;;;;36.43;15.07;;;;;;;;;;5029128;28;20692;-85
2024/01/01 03:36:25;;;;;;;28.47;14.20;;;;;;;;;;5029180;28;20250;-84
2024/01/01 03:38:55;;;;;;;36.13;15.07;;;;;;;;;;5029326;28;20250;-86
2024/01/01 03:41:27;;;;;;;31.07;13.83;;;;;;;;;;5028829;28;20293;-87
2024/01/01 03:43:57;;;;;;;41.20;15.37;;;;;;;;;;5028672;28;20227;-85
2024/01/01 03:46:29;;;;;;;26.63;14.10;;;;;;;;;;5029757;28;20207;-86
2024/01/01 03:49:02;;;;;;;39.27;15.37;;;;;;;;;;5029259;28;20673;-86
2024/01/01 03:51:33;;;;;;;35.67;12.47;;;;;;;;;;5028693;28;20289;-85
2024/01/01 03:54:01;;;;;;;31.20;15.50;;;;;;;;;;5029454;28;20203;-85
2024/01/01 03:56:32;;;;;;;30.47;13.27;;;;;;;;;;5028964;28;20203;-85
2024/01/01 03:59:00;;;;;;;26.50;11.87;;;;;;;;;;5029254;28;20685;-85
2024/01/01 04:01:31;;;;;;;31.43;12.93;;;;;;;;;;5029105;28;20203;-86
2024/01/01 04:04:03;;;;;;;31.77;12.17;;;;;;;;;;5030074;28;20275;-86
2024/01/01 04:06:36;;;;;;;40.33;12.53;;;;;;;;;;5028622;28;20204;-86
2024/01/01 04:09:06;;;;;;;27.37;11.33;;;;;;;;;;5029898;28;20222;-84
2024/01/01 04:11:43;;;;;;;32.67;12.40;;;;;;;;;;5030014;28;20188;-86
2024/01/01 04:14:13;;;;;;;29.47;12.30;;;;;;;;;;5029108;28;20203;-86
2024/01/01 04:16:43;;;;;;;27.17;11.30;;;;;;;;;;5029505;28;20231;-85
2024/01/01 04:19:13;;;;;;;33.23;11.40;;;;;;;;;;5028782;28;20204;-85
2024/01/01 04:21:42;;;;;;;23.20;11.40;;;;;;;;;;5029753;28;20208;-85
2024/01/01 04:24:12;;;;;;;25.23;10.87;;;;;;;;;;5028377;28;20710;-85
2024/01/01 04:26:42;;;;;;;29.03;12.93;;;;;;;;;;5029633;28;20656;-85
2024/01/01 04:29:14;;;;;;;33.90;14.30;;;;;;;;;;5028218;28;20339;-85
2024/01/01 04:31:46;;;;;;;23.00;12.20;;;;;;;;;;5028728;28;20669;-86
2024/01/01 04:34:16;;;;;;;26.37;11.10;;;;;;;;;;5028875;28;20858;-85
2024/01/01 04:36:45;;;;;;;21.10;12.57;;;;;;;;;;5028315;28;20278;-85
2024/01/01 04:39:14;;;;;;;22.53;12.63;;;;;;;;;;5029995;28;20579;-85
2024/01/01 04:41:48;;;;;;;18.93;11.10;;;;;;;;;;5028859;28;20295;-86
2024/01/01 04:44:18;;;;;;;17.07;10.50;;;;;;;;;;5029098;28;20219;-86
2024/01/01 04:46:51;;;;;;;31.40;10.40;;;;;;;;;;5028220;28;20305;-85
2024/01/01 04:49:20;;;;;;;19.97;10.67;;;;;;;;;;5029115;28;20280;-86
2024/01/01 04:51:51;;;;;;;25.87;11.10;;;;;;;;;;5030668;28;20206;-85
2024/01/01 04:54:24;;;;;;;19.77;9.90;;;;;;;;;;5033298;28;20287;-85
2024/01/01 04:56:54;;;;;;;22.07;9.37;;;;;;;;;;5032545;28;20203;-86
2024/01/01 04:59:25;;;;;;;27.93;9.23;;;;;;;;;;5039151;28;20192;-85
2024/01/01 05:01:55;;;;;;;20.80;10.10;;;;;;;;;;5041112;28;20195;-85
2024/01/01 05:04:28;;;;;;;17.03;9.53;;;;;;;;;;5053414;28;20184;-83
2024/01/01 05:07:00;;;;;;;24.43;10.87;;;;;;;;;;5045720;28;20235;-84
2024/01/01 05:09:29;;;;;;;26.80;10.13;;;;;;;;;;5034172;28;20204;-86
2024/01/01 05:12:00;;;;;;;23.67;10.10;;;;;;;;;;5031097;28;20203;-85
2024/01/01 05:14:30;;;;;;;26.90;8.83;;;;;;;;;;5033410;28;20489;-87
2024/01/01 05:17:01;;;;;;;16.53;8.60;;;;;;;;;;5033780;28;20725;-83
2024/01/01 05:19:30;;;;;;;25.17;9.73;;;;;;;;;;5037598;28;20234;-86
2024/01/01 05:22:02;;;;;;;22.83;10.40;;;;;;;;;;5044366;28;20679;-85
2024/01/01 05:24:35;;;;;;;27.90;11.93;;;;;;;;;;5043349;28;20251;-84
2024/01/01 05:27:07;;;;;;;30.67;10.37;;;;;;;;;;5040978;28;20240;-83
2024/01/01 05:29:38;;;;;;;22.73;10.53;;;;;;;;;;5037825;28;20200;-84
2024/01/01 05:32:06;;;;;;;27.80;12.87;;;;;;;;;;5036265;28;20553;-84
2024/01/01 05:34:36;;;;;;;27.43;11.77;;;;;;;;;;5035535;28;20466;-83
2024/01/01 05:37:05;;;;;;;28.30;11.20;;;;;;;;;;5035705;28;20196;-88
2024/01/01 05:39:35;;;;;;;31.30;13.90;;;;;;;;;;5033603;28;20196;-85
2024/01/01 05:42:06;;;;;;;25.00;10.43;;;;;;;;;;5033149;28;20641;-85
2024/01/01 05:44:37;;;;;;;21.23;10.60;;;;;;;;;;5033221;28;20200;-85
2024/01/01 05:47:08;;;;;;;28.07;10.23;;;;;;;;;;5031020;28;20637;-85
2024/01/01 05:49:38;;;;;;;21.80;11.10;;;;;;;;;;5032516;28;20633;-86
2024/01/01 05:52:11;;;;;;;21.83;11.53;;;;;;;;;;5032864;28;20200;-85
2024/01/01 05:54:40;;;;;;;22.17;10.57;;;;;;;;;;5032569;28;20613;-86
2024/01/01 05:57:10;;;;;;;31.43;12.57;;;;;;;;;;5031590;28;20577;-86
2024/01/01 05:59:39;;;;;;;22.70;13.23;;;;;;;;;;5033266;28;20730;-85
2024/01/01 06:02:08;;;;;;;24.77;10.80;;;;;;;;;;5032201;28;20207;-84
2024/01/01 06:04:37;;;;;;;21.60;9.90;;;;;;;;;;5030982;28;20567;-86
2024/01/01 06:07:06;;;;;;;39.73;14.27;;;;;;;;;;5031681;28;20241;-86
2024/01/01 06:09:35;;;;;;;23.87;11.47;;;;;;;;;;5031595;28;20246;-85
2024/01/01 06:12:07;;;;;;;30.47;13.07;;;;;;;;;;5031076;28;20200;-85
2024/01/01 06:14:38;;;;;;;27.70;14.03;;;;;;;;;;5031491;28;20192;-85
2024/01/01 06:17:08;;;;;;;33.50;12.57;;;;;;;;;;5029957;28;20231;-84
2024/01/01 06:19:39;;;;;;;38.53;14.17;;;;;;;;;;5030081;28;21253;-85
2024/01/01 06:22:11;;;;;;;43.10;17.03;;;;;;;;;;5031290;28;20199;-86
2024/01/01 06:24:43;;;;;;;22.47;13.93;;;;;;;;;;5032022;28;20200;-86
2024/01/01 06:27:13;;;;;;;36.80;16.83;;;;;;;;;;5031065;28;20192;-86
2024/01/01 06:29:47;;;;;;;35.47;15.33;;;;;;;;;;5031215;28;20202;-85
2024/01/01 06:32:18;;;;;;;32.63;14.13;;;;;;;;;;5031149;28;20708;-86
2024/01/01 06:34:48;;;;;;;30.67;14.37;;;;;;;;;;5031689;28;20235;-86
2024/01/01 06:37:21;;;;;;;38.53;13.90;;;;;;;;;;5032050;28;20539;-85
2024/01/01 06:39:51;;;;;;;26.17;14.10;;;;;;;;;;5031255;28;20207;-85
2024/01/01 06:42:22;;;;;;;29.10;13.30;;;;;;;;;;5029998;28;20242;-86
2024/01/01 06:44:57;;;;;;;38.33;15.43;;;;;;;;;;5030922;28;20254;-86
2024/01/01 06:47:28;;;;;;;46.63;17.33;;;;;;;;;;5030425;28;20211;-86
2024/01/01 06:49:57;;;;;;;41.03;17.53;;;;;;;;;;5030708;28;20279;-85
2024/01/01 06:52:28;;;;;;;34.50;15.47;;;;;;;;;;5030083;28;20204;-86
2024/01/01 06:54:59;;;;;;;40.07;16.70;;;;;;;;;;5030055;28;20302;-87
2024/01/01 06:57:27;;;;;;;31.90;16.77;;;;;;;;;;5030778;28;20200;-86
2024/01/01 06:59:57;;;;;;;41.37;20.63;;;;;;;;;;5030001;28;20677;-85
2024/01/01 07:02:28;;;;;;;47.40;20.80;;;;;;;;;;5031073;28;20196;-85
2024/01/01 07:05:01;;;;;;;48.70;19.70;;;;;;;;;;5028512;28;20696;-86
2024/01/01 07:07:33;;;;;;;59.53;25.50;;;;;;;;;;5030749;28;20188;-85
2024/01/01 07:10:03;;;;;;;72.83;29.03;;;;;;;;;;5029484;28;20200;-87
2024/01/01 07:12:32;;;;;;;89.43;32.33;;;;;;;;;;5030012;28;20669;-87
2024/01/01 07:15:05;;;;;;;87.43;35.33;;;;;;;;;;5028919;28;20204;-84
2024/01/01 07:17:36;;;;;;;78.53;32.73;;;;;;;;;;5028787;28;20578;-85
2024/01/01 07:20:05;;;;;;;86.20;34.73;;;;;;;;;;5030314;28;20228;-86
2024/01/01 07:22:33;;;;;;;78.77;35.07;;;;;;;;;;5030227;28;20211;-85
2024/01/01 07:25:03;;;;;;;87.33;35.50;;;;;;;;;;5029760;28;21000;-85
2024/01/01 07:27:49;;;;;;;70.37;36.93;;;;;;;;;;5030599;28;20665;-87
2024/01/01 07:30:22;;;;;;;77.13;34.43;;;;;;;;;;5030627;28;20265;-86
2024/01/01 07:32:50;;;;;;;71.23;32.53;;;;;;;;;;5029668;28;20643;-86
2024/01/01 07:35:18;;;;;;;66.00;31.27;;;;;;;;;;5029664;28;20696;-86
2024/01/01 07:37:50;;;;;;;61.67;29.43;;;;;;;;;;5032476;28;20465;-85
2024/01/01 07:40:19;;;;;;;68.33;34.27;;;;;;;;;;5030249;28;20262;-85
2024/01/01 07:42:47;;;;;;;73.90;34.13;;;;;;;;;;5032425;28;20319;-85
2024/01/01 07:45:15;;;;;;;76.83;33.67;;;;;;;;;;5030707;28;20630;-85
2024/01/01 07:47:48;;;;;;;70.30;31.57;;;;;;;;;;5044146;28;20203;-86
2024/01/01 07:50:16;;;;;;;67.93;31.90;;;;;;;;;;5047630;28;20697;-86
2024/01/01 07:52:44;;;;;;;72.13;31.00;;;;;;;;;;5053193;28;20219;-86
2024/01/01 07:55:12;;;;;;;60.87;25.80;;;;;;;;;;5042763;28;20250;-87
2024/01/01 07:57:40;;;;;;;57.60;27.47;;;;;;;;;;5031086;28;20203;-85
2024/01/01 08:00:10;;;;;;;47.97;23.20;;;;;;;;;;5030001;28;20586;-85
2024/01/01 08:02:38;;;;;;;44.93;21.37;;;;;;;;;;5029237;28;20413;-87
2024/01/01 08:05:06;;;;;;;36.13;16.07;;;;;;;;;;5029733;28;20196;-86
2024/01/01 08:07:37;;;;;;;37.73;17.97;;;;;;;;;;5030489;28;20203;-86
2024/01/01 08:10:08;;;;;;;24.80;15.70;;;;;;;;;;5028800;28;20517;-86
2024/01/01 08:12:37;;;;;;;29.17;16.60;;;;;;;;;;5030299;28;20654;-87
2024/01/01 08:15:08;;;;;;;32.90;15.97;;;;;;;;;;5029121;28;20258;-85
2024/01/01 08:17:38;;;;;;;28.70;14.83;;;;;;;;;;5028821;28;20192;-84
2024/01/01 08:20:12;;;;;;;32.53;14.10;;;;;;;;;;5029823;28;20226;-85
2024/01/01 08:22:43;;;;;;;26.07;12.90;;;;;;;;;;5029432;28;20224;-85
2024/01/01 08:25:12;;;;;;;27.23;13.77;;;;;;;;;;5029456;28;20200;-85
2024/01/01 08:27:40;;;;;;;29.80;14.23;;;;;;;;;;5032707;28;20196;-84
2024/01/01 08:30:08;;;;;;;28.90;14.30;;;;;;;;;;5032585;28;20206;-86
2024/01/01 08:32:37;;;;;;;33.60;14.37;;;;;;;;;;5032233;28;20311;-86
2024/01/01 08:35:18;;;;;;;25.63;12.70;;;;;;;;;;5032191;28;20232;-87
2024/01/01 08:37:49;;;;;;;29.53;15.13;;;;;;;;;;5033719;28;20196;-85
2024/01/01 08:40:20;;;;;;;26.03;14.30;;;;;;;;;;5032860;28;20363;-86
2024/01/01 08:42:53;;;;;;;30.50;14.13;;;;;;;;;;5033013;28;20269;-86
2024/01/01 08:45:24;;;;;;;31.70;15.63;;;;;;;;;;5033418;28;20200;-86
2024/01/01 08:47:57;;;;;;;30.93;14.43;;;;;;;;;;5032682;28;20188;-85
2024/01/01 08:50:29;;;;;;;27.63;13.67;;;;;;;;;;5032311;28;20673;-86
2024/01/01 08:53:00;;;;;;;31.23;15.33;;;;;;;;;;5033471;28;20639;-85
2024/01/01 08:55:29;;;;;;;29.90;15.57;;;;;;;;;;5033100;28;20219;-85
2024/01/01 08:58:00;;;;;;;33.73;15.87;;;;;;;;;;5031861;28;20262;-84
2024/01/01 09:00:30;;;;;;;49.80;20.87;;;;;;;;;;5032372;28;20188;-85
2024/01/01 09:02:58;;;;;;;67.40;29.57;;;;;;;;;;5039988;28;20707;-85
2024/01/01 09:05:34;;;;;;;68.50;32.53;;;;;;;;;;5034302;28;20200;-84
2024/01/01 09:08:11;;;;;;;80.33;36.23;;;;;;;;;;5032955;28;20199;-85
2024/01/01 09:10:40;;;;;;;85.00;37.97;;;;;;;;;;5031850;28;20254;-85
2024/01/01 09:13:11;;;;;;;74.27;35.40;;;;;;;;;;5032471;28;20193;-88
2024/01/01 09:15:39;;;;;;;71.90;32.07;;;;;;;;;;5032351;28;20192;-87
2024/01/01 09:18:08;;;;;;;68.60;29.30;;;;;;;;;;5028567;28;20239;-86
2024/01/01 09:20:49;;;;;;;65.40;31.17;;;;;;;;;;5024351;28;20251;-85
2024/01/01 09:23:20;;;;;;;79.03;30.87;;;;;;;;;;5028703;28;20258;-85
2024/01/01 09:25:54;;;;;;;41.50;21.60;;;;;;;;;;5033037;28;20223;-84
2024/01/01 09:28:24;;;;;;;53.33;22.27;;;;;;;;;;5032840;28;20322;-85
2024/01/01 09:30:55;;;;;;;54.73;23.77;;;;;;;;;;5025201;28;20231;-87
2024/01/01 09:33:30;;;;;;;64.90;30.57;;;;;;;;;;5031119;28;20232;-86
2024/01/01 09:35:59;;;;;;;72.77;35.83;;;;;;;;;;5027142;28;20322;-86
2024/01/01 09:38:32;;;;;;;73.87;33.07;;;;;;;;;;5030132;28;20652;-86
2024/01/01 09:41:27;;;;;;;68.03;31.30;;;;;;;;;;5029585;28;20302;-85
2024/01/01 09:43:56;;;;;;;51.50;23.97;;;;;;;;;;5031515;28;20305;-84
2024/01/01 09:46:28;;;;;;;61.17;24.17;;;;;;;;;;5026197;28;20228;-85
2024/01/01 09:48:57;;;;;;;61.07;25.53;;;;;;;;;;5030538;28;20243;-86
2024/01/01 09:51:29;;;;;;;49.90;22.30;;;;;;;;;;5029522;28;20239;-85
2024/01/01 09:54:01;;;;;;;50.37;21.47;;;;;;;;;;5029621;28;20220;-84
2024/01/01 09:56:31;;;;;;;49.03;22.70;;;;;;;;;;5027352;28;20307;-85
2024/01/01 09:59:00;;;;;;;47.00;20.80;;;;;;;;;;5030225;28;20228;-86
2024/01/01 10:01:33;;;;;;;47.43;22.33;;;;;;;;;;5027333;28;20242;-85
2024/01/01 10:04:07;;;;;;;46.10;21.20;;;;;;;;;;5030042;28;20310;-84
2024/01/01 10:06:36;;;;;;;55.67;20.70;;;;;;;;;;5026218;28;20243;-85
2024/01/01 10:09:11;;;;;;;61.03;25.97;;;;;;;;;;5028598;28;20235;-85
2024/01/01 10:11:42;;;;;;;67.33;32.67;;;;;;;;;;5028336;28;20330;-85
2024/01/01 10:14:22;;;;;;;67.90;29.93;;;;;;;;;;5029783;28;20227;-85
2024/01/01 10:16:55;;;;;;;67.07;31.50;;;;;;;;;;5024777;28;20255;-85
2024/01/01 10:19:25;;;;;;;66.63;29.37;;;;;;;;;;5032805;28;20232;-84
2024/01/01 10:22:01;;;;;;;64.53;28.60;;;;;;;;;;5030901;28;20228;-85
2024/01/01 10:24:29;;;;;;;63.70;30.60;;;;;;;;;;5030144;28;20306;-86
2024/01/01 10:26:58;;;;;;;63.13;28.47;;;;;;;;;;5025654;28;20227;-83
2024/01/01 10:29:28;;;;;;;53.67;28.60;;;;;;;;;;5029079;28;20241;-85
2024/01/01 10:31:58;;;;;;;43.63;22.27;;;;;;;;;;5026110;28;20236;-84
2024/01/01 10:34:28;;;;;;;56.43;23.87;;;;;;;;;;5034637;28;20239;-83
2024/01/01 10:37:07;;;;;;;55.17;25.17;;;;;;;;;;5034636;28;20251;-84
2024/01/01 10:39:41;;;;;;;35.03;17.33;;;;;;;;;;5044830;28;20665;-85
2024/01/01 10:42:25;;;;;;;33.07;15.57;;;;;;;;;;5053142;28;20238;-84
2024/01/01 10:44:53;;;;;;;27.87;15.60;;;;;;;;;;5039084;28;20220;-86
2024/01/01 10:47:27;;;;;;;31.03;15.17;;;;;;;;;;5028788;28;20255;-84
2024/01/01 10:50:03;;;;;;;32.57;16.87;;;;;;;;;;5029689;28;20568;-85
2024/01/01 10:52:42;;;;;;;34.97;16.80;;;;;;;;;;5026274;28;20758;-84
2024/01/01 10:55:27;;;;;;;35.23;15.60;;;;;;;;;;5030085;28;20327;-84
2024/01/01 10:58:03;;;;;;;34.13;16.40;;;;;;;;;;5023562;28;20287;-85
2024/01/01 11:00:37;;;;;;;37.50;17.57;;;;;;;;;;5034680;28;20229;-83
2024/01/01 11:03:10;;;;;;;32.50;15.30;;;;;;;;;;5032723;28;20231;-83
2024/01/01 11:05:45;;;;;;;29.33;15.93;;;;;;;;;;5033999;28;20256;-84
2024/01/01 11:08:29;;;;;;;33.57;15.33;;;;;;;;;;5030967;28;20240;-85
2024/01/01 11:10:59;;;;;;;25.17;10.50;;;;;;;;;;5018127;28;20222;-84
2024/01/01 11:13:46;;;;;;;21.80;12.43;;;;;;;;;;5028215;28;20230;-86
2024/01/01 11:16:16;;;;;;;26.70;12.17;;;;;;;;;;5029316;28;20379;-85
2024/01/01 11:18:50;;;;;;;17.60;10.90;;;;;;;;;;5019689;28;20239;-84
2024/01/01 11:21:29;;;;;;;25.50;11.70;;;;;;;;;;5027888;28;20220;-83
2024/01/01 11:24:04;;;;;;;27.40;13.10;;;;;;;;;;5012779;28;20298;-84
2024/01/01 11:26:35;;;;;;;25.43;13.60;;;;;;;;;;5026820;28;20292;-85
2024/01/01 11:29:04;;;;;;;27.23;13.27;;;;;;;;;;5014336;28;20322;-84
2024/01/01 11:31:33;;;;;;;16.60;8.97;;;;;;;;;;5028797;28;20308;-85
2024/01/01 11:34:06;;;;;;;11.43;7.70;;;;;;;;;;5025031;28;20349;-86
2024/01/01 11:36:40;;;;;;;15.90;8.63;;;;;;;;;;5030175;28;20282;-84
2024/01/01 11:39:14;;;;;;;14.47;8.20;;;;;;;;;;5024084;28;20253;-83
2024/01/01 11:41:43;;;;;;;15.67;8.30;;;;;;;;;;5029486;28;20215;-86
2024/01/01 11:44:12;;;;;;;17.93;9.97;;;;;;;;;;5023748;28;20228;-83
2024/01/01 11:46:43;;;;;;;12.70;8.43;;;;;;;;;;5028139;28;20339;-85
2024/01/01 11:49:16;;;;;;;17.63;9.03;;;;;;;;;;5021250;28;20233;-84
2024/01/01 11:52:04;;;;;;;17.83;9.67;;;;;;;;;;5008516;28;20247;-85
2024/01/01 11:54:40;;;;;;;13.10;8.20;;;;;;;;;;5007141;28;20224;-85
2024/01/01 11:57:13;;;;;;;17.13;9.37;;;;;;;;;;5009017;28;20256;-84
2024/01/01 11:59:50;;;;;;;16.63;9.40;;;;;;;;;;5022315;28;20531;-85
2024/01/01 12:02:20;;;;;;;13.27;8.13;;;;;;;;;;5033086;28;20552;-84
2024/01/01 12:04:53;;;;;;;12.77;8.33;;;;;;;;;;5032121;28;20236;-86
2024/01/01 12:07:32;;;;;;;16.23;8.57;;;;;;;;;;5031966;28;20263;-86
2024/01/01 12:10:27;;;;;;;18.23;8.63;;;;;;;;;;5030890;28;20627;-86
2024/01/01 12:13:05;;;;;;;15.97;8.93;;;;;;;;;;4972337;28;20229;-85
2024/01/01 12:15:48;;;;;;;16.80;9.50;;;;;;;;;;5028126;28;20242;-85
2024/01/01 12:18:21;;;;;;;19.37;9.90;;;;;;;;;;5031636;28;20236;-85
2024/01/01 12:20:51;;;;;;;28.13;10.10;;;;;;;;;;5032277;28;20250;-87
2024/01/01 12:23:25;;;;;;;16.90;9.23;;;;;;;;;;5032950;28;20231;-87
2024/01/01 12:26:18;;;;;;;18.67;9.43;;;;;;;;;;5032299;28;20582;-86
2024/01/01 12:29:11;;;;;;;16.60;9.03;;;;;;;;;;5027295;28;20826;-87
2024/01/01 12:31:42;;;;;;;17.33;9.40;;;;;;;;;;5033186;28;20257;-86
2024/01/01 12:34:17;;;;;;;18.93;8.23;;;;;;;;;;5029916;28;20239;-87
2024/01/01 12:36:49;;;;;;;15.93;8.67;;;;;;;;;;5015221;28;20223;-86
2024/01/01 12:39:20;;;;;;;14.23;9.00;;;;;;;;;;5030539;28;20254;-87
2024/01/01 12:41:54;;;;;;;21.97;11.63;;;;;;;;;;5033293;28;20306;-86
2024/01/01 12:44:26;;;;;;;16.53;8.43;;;;;;;;;;5028880;28;20259;-86
2024/01/01 12:47:00;;;;;;;14.70;8.33;;;;;;;;;;5032996;28;20311;-86
2024/01/01 12:49:34;;;;;;;15.23;8.13;;;;;;;;;;5029148;28;20243;-86
2024/01/01 12:52:02;;;;;;;19.23;9.67;;;;;;;;;;5031879;28;20228;-86
2024/01/01 12:54:34;;;;;;;17.77;9.40;;;;;;;;;;5030172;28;20234;-87
2024/01/01 12:57:02;;;;;;;19.90;10.00;;;;;;;;;;5031658;28;20270;-88
2024/01/01 12:59:33;;;;;;;17.53;9.20;;;;;;;;;;5030304;28;20337;-86
2024/01/01 13:02:03;;;;;;;17.20;8.40;;;;;;;;;;5032089;28;20334;-87
2024/01/01 13:04:36;;;;;;;19.00;9.93;;;;;;;;;;5032205;28;20254;-86
2024/01/01 13:07:04;;;;;;;16.87;8.73;;;;;;;;;;5031924;28;20322;-85
2024/01/01 13:09:33;;;;;;;16.07;8.23;;;;;;;;;;5027070;28;20755;-85
2024/01/01 13:12:05;;;;;;;15.83;8.40;;;;;;;;;;5030460;28;20704;-87
2024/01/01 13:14:35;;;;;;;14.97;8.33;;;;;;;;;;5029620;28;20236;-85
2024/01/01 13:17:06;;;;;;;16.83;8.37;;;;;;;;;;5031785;28;20232;-85
2024/01/01 13:19:38;;;;;;;17.07;7.53;;;;;;;;;;5014241;28;20627;-87
2024/01/01 13:22:07;;;;;;;11.23;7.83;;;;;;;;;;5012255;28;20260;-85
2024/01/01 13:24:44;;;;;;;14.43;8.27;;;;;;;;;;5010933;28;20259;-86
2024/01/01 13:27:23;;;;;;;12.83;7.60;;;;;;;;;;5014814;28;20220;-85
2024/01/01 13:29:54;;;;;;;13.23;8.30;;;;;;;;;;5027892;28;20240;-84
2024/01/01 13:32:27;;;;;;;15.50;7.77;;;;;;;;;;5053459;28;20211;-85
2024/01/01 13:35:00;;;;;;;10.27;6.90;;;;;;;;;;5054051;28;20282;-86
2024/01/01 13:37:33;;;;;;;23.03;7.97;;;;;;;;;;5033049;28;20228;-85
2024/01/01 13:40:04;;;;;;;13.67;8.83;;;;;;;;;;5030990;28;20323;-86
2024/01/01 13:42:34;;;;;;;13.63;7.70;;;;;;;;;;5030405;28;20220;-84
2024/01/01 13:45:10;;;;;;;14.13;7.60;;;;;;;;;;5026301;28;20232;-86
2024/01/01 13:47:41;;;;;;;20.13;9.33;;;;;;;;;;5031840;28;20238;-84
2024/01/01 13:50:11;;;;;;;16.00;8.33;;;;;;;;;;5029727;28;20310;-84
2024/01/01 13:52:45;;;;;;;19.20;8.73;;;;;;;;;;5032464;28;20307;-85
2024/01/01 13:55:16;;;;;;;18.90;8.73;;;;;;;;;;5027747;28;20234;-84
2024/01/01 13:57:50;;;;;;;16.60;9.40;;;;;;;;;;5029791;28;20274;-84
2024/01/01 14:00:24;;;;;;;16.67;8.47;;;;;;;;;;5024757;28;20381;-85
2024/01/01 14:02:54;;;;;;;13.27;8.57;;;;;;;;;;5029336;28;20294;-85
2024/01/01 14:05:27;;;;;;;16.73;8.57;;;;;;;;;;5025679;28;20231;-84
2024/01/01 14:07:56;;;;;;;27.97;10.83;;;;;;;;;;5029584;28;20251;-85
2024/01/01 14:10:26;;;;;;;22.43;11.40;;;;;;;;;;5027364;28;20705;-84
2024/01/01 14:12:58;;;;;;;20.97;11.90;;;;;;;;;;5028370;28;20302;-84
2024/01/01 14:15:28;;;;;;;24.20;12.30;;;;;;;;;;5026274;28;20221;-84
2024/01/01 14:18:01;;;;;;;21.90;11.57;;;;;;;;;;5030974;28;20239;-84
2024/01/01 14:20:29;;;;;;;24.70;12.60;;;;;;;;;;5027032;28;20277;-85
2024/01/01 14:23:00;;;;;;;19.20;9.40;;;;;;;;;;5029928;28;20224;-84
2024/01/01 14:25:28;;;;;;;22.33;10.43;;;;;;;;;;5030254;28;20322;-84
2024/01/01 14:27:55;;;;;;;17.83;10.03;;;;;;;;;;5029290;28;20615;-84
2024/01/01 14:30:31;;;;;;;17.53;10.10;;;;;;;;;;5009785;28;20259;-85
2024/01/01 14:33:02;;;;;;;23.40;11.43;;;;;;;;;;5009853;28;20228;-84
2024/01/01 14:35:33;;;;;;;20.07;10.80;;;;;;;;;;5009328;28;20327;-85
2024/01/01 14:38:03;;;;;;;30.43;11.87;;;;;;;;;;5008489;28;20228;-86
2024/01/01 14:40:34;;;;;;;23.43;11.40;;;;;;;;;;5010084;28;20220;-85
2024/01/01 14:43:03;;;;;;;22.13;10.83;;;;;;;;;;5008473;28;20669;-84
2024/01/01 14:45:34;;;;;;;20.90;10.20;;;;;;;;;;5009992;28;20223;-86
2024/01/01 14:48:05;;;;;;;24.43;11.17;;;;;;;;;;5007486;28;20226;-86